Latest Weather Observations for Wyndham Airport

IDW60801

Issued at 7:05 am WST Wednesday 17 September 2014 (issued every 30 minutes, with the page automatically refreshed every 10 minutes)

About weather observations | Map of weather stations | Latest weather observations for WA | Other Formats
Station Details ID: 001006 Name: WYNDHAM AERO Lat: -15.51 Lon: 128.15 Height: 3.8 m
Data from the previous 72 hours. | See also: Recent months for locations in Western Australia
Date/Time
WST
Temp
°C
App
Temp
°C
Dew
Point
Rel
Hum
%
Delta-T
°C
Wind Press
QNH
hPa
Press
MSL
hPa
Rain
since 9 am
mm
Dir
 
Spd
km/h
Gust
km/h
Spd
kts
Gust
kts
17/07:00am 26.8 26.4 15.2 49 7.0 E 11 19 6 10 1014.7 1014.7 0.0
17/06:30am 24.9 24.6 14.4 52 6.2 E 9 17 5 9 1014.4 1014.4 0.0
17/06:00am 21.7 22.6 12.8 57 5.1 CALM 0 4 0 2 1013.3 1013.3 0.0
17/05:30am 21.6 21.0 12.2 55 5.3 WSW 7 9 4 5 1012.9 1012.9 0.0
17/05:00am 21.7 20.9 12.8 57 5.1 NNW 9 11 5 6 1012.4 1012.4 0.0
17/04:30am 21.8 22.0 12.9 57 5.1 WNW 4 7 2 4 1012.2 1012.2 0.0
17/04:00am 21.8 21.3 12.6 56 5.2 W 7 7 4 4 1012.0 1012.0 0.0
17/03:30am 21.9 21.5 13.0 57 5.1 W 7 9 4 5 1011.7 1011.7 0.0
17/03:00am 21.7 20.5 12.8 57 5.1 NW 11 11 6 6 1011.3 1011.3 0.0
17/02:30am 20.9 20.1 11.8 56 5.1 NW 7 9 4 5 1011.2 1011.2 0.0
17/02:00am 21.1 20.3 12.8 59 4.7 NNW 9 11 5 6 1011.2 1011.2 0.0
17/01:30am 22.7 23.3 15.3 63 4.4 WNW 6 7 3 4 1011.3 1011.3 0.0
17/01:00am 21.8 22.8 15.4 67 3.8 WNW 4 7 2 4 1011.6 1011.6 0.0
17/12:30am 21.0 20.5 11.9 56 5.1 W 6 7 3 4 1011.5 1011.5 0.0
17/12:00am 21.5 21.5 13.7 61 4.5 W 6 6 3 3 1011.7 1011.7 0.0
 
Date/Time
WST
Temp
°C
App
Temp
°C
Dew
Point
Rel
Hum
%
Delta-T
°C
Wind Press
QNH
hPa
Press
MSL
hPa
Rain
since 9 am
mm
Dir
 
Spd
km/h
Gust
km/h
Spd
kts
Gust
kts
16/11:30pm 21.3 20.2 9.9 48 6.1 W 6 7 3 4 1012.0 1012.0 0.0
16/11:00pm 21.5 21.9 12.4 56 5.1 NW 2 7 1 4 1012.2 1012.2 0.0
16/10:30pm 23.2 24.4 13.9 56 5.4 CALM 0 0 0 0 1012.4 1012.4 0.0
16/10:00pm 21.9 20.6 10.1 47 6.4 SW 7 9 4 5 1012.3 1012.3 0.0
16/09:30pm 23.9 24.6 12.2 48 6.7 CALM 0 0 0 0 1012.5 1012.5 0.0
16/09:00pm 25.2 24.4 11.7 43 7.7 E 7 9 4 5 1012.5 1012.5 0.0
16/08:30pm 24.9 23.8 10.0 39 8.2 ENE 6 9 3 5 1012.4 1012.4 0.0
16/08:00pm 26.6 25.1 11.9 40 8.4 W 11 17 6 9 1012.2 1012.2 0.0
16/07:30pm 28.1 25.9 9.4 31 10.4 NNW 11 20 6 11 1012.0 1012.0 0.0
16/07:00pm 28.0 26.7 11.1 35 9.6 E 9 15 5 8 1011.6 1011.6 0.0
16/06:30pm 28.2 25.1 11.7 36 9.5 N 19 28 10 15 1011.2 1011.2 0.0
16/06:00pm 28.5 25.5 12.4 37 9.4 N 20 28 11 15 1010.7 1010.7 0.0
16/05:30pm 29.2 24.7 12.6 36 9.7 N 28 39 15 21 1010.2 1010.2 0.0
16/05:00pm 30.2 25.0 11.7 32 10.8 N 30 41 16 22 1009.8 1009.8 0.0
16/04:30pm 31.9 27.6 12.2 30 11.6 N 26 33 14 18 1009.6 1009.6 0.0
16/04:00pm 33.7 30.0 10.3 24 13.5 N 20 30 11 16 1009.4 1009.4 0.0
16/03:30pm 34.2 30.5 11.4 25 13.4 N 22 30 12 16 1009.2 1009.2 0.0
16/03:00pm 34.2 30.6 12.0 26 13.2 N 22 32 12 17 1009.1 1009.1 0.0
16/02:30pm 34.9 30.6 9.3 21 14.6 N 22 32 12 17 1009.1 1009.1 0.0
16/02:00pm 35.9 33.9 10.2 21 15.0 NNE 11 37 6 20 1009.3 1009.3 0.0
16/01:30pm 35.7 32.9 8.5 19 15.4 N 13 26 7 14 1009.6 1009.6 0.0
16/01:00pm 35.6 30.9 3.0 13 17.0 N 17 26 9 14 1010.1 1010.1 0.0
16/12:30pm 35.3 32.0 6.6 17 15.8 N 13 22 7 12 1010.5 1010.5 0.0
16/12:00pm 35.1 31.0 8.0 19 15.2 NNW 19 28 10 15 1010.9 1010.9 0.0
16/11:30am 35.1 31.4 6.4 17 15.7 NNE 15 24 8 13 1011.5 1011.5 0.0
16/11:00am 35.1 31.0 4.6 15 16.2 NE 15 24 8 13 1011.9 1011.9 0.0
16/10:30am 34.0 30.9 5.5 17 15.3 NNE 11 20 6 11 1012.1 1012.1 0.0
16/10:00am 33.4 30.9 6.6 19 14.6 ENE 9 17 5 9 1012.5 1012.5 0.0
16/09:30am 31.5 30.3 10.2 27 12.2 W 7 11 4 6 1013.0 1013.0 0.0
16/09:00am 29.7 29.1 10.3 30 11.0 SW 4 9 2 5 1013.1 1013.1 0.0
16/08:30am 28.5 27.6 10.7 33 10.1 SW 6 9 3 5 1013.0 1013.0 0.0
16/08:00am 26.5 25.6 11.4 39 8.6 WSW 7 11 4 6 1013.0 1013.0 0.0
16/07:30am 25.3 24.6 11.5 42 7.8 W 6 7 3 4 1012.8 1012.8 0.0
16/07:00am 23.7 24.1 11.1 45 7.0 CALM 0 0 0 0 1012.7 1012.7 0.0
16/06:30am 20.6 21.1 11.5 56 5.0 CALM 0 0 0 0 1012.6 1012.6 0.0
16/06:00am 17.6 17.3 11.6 68 3.3 ESE 4 6 2 3 1012.3 1012.3 0.0
16/05:30am 17.4 16.8 12.3 72 2.8 ESE 7 9 4 5 1012.1 1012.1 0.0
16/05:00am 17.8 17.5 12.7 72 2.8 ESE 6 7 3 4 1011.8 1011.8 0.0
16/04:30am 18.2 17.2 12.2 68 3.3 ENE 9 11 5 6 1011.4 1011.4 0.0
16/04:00am 18.4 16.1 10.3 59 4.3 ESE 13 15 7 8 1011.1 1011.1 0.0
16/03:30am 18.7 18.0 6.9 46 5.9 CALM 0 6 0 3 1010.7 1010.7 0.0
16/03:00am 19.3 17.3 6.1 42 6.6 WSW 6 7 3 4 1010.4 1010.4 0.0
16/02:30am 20.1 18.5 7.8 45 6.3 WNW 6 7 3 4 1010.4 1010.4 0.0
16/02:00am 20.4 18.9 8.4 46 6.3 NNW 6 6 3 3 1010.4 1010.4 0.0
16/01:30am 20.7 19.3 8.7 46 6.3 WSW 6 9 3 5 1010.6 1010.6 0.0
16/01:00am 19.4 18.4 7.5 46 6.1 W 2 7 1 4 1010.8 1010.8 0.0
16/12:30am 20.6 20.8 10.4 52 5.5 CALM 0 0 0 0 1010.9 1010.9 0.0
16/12:00am 20.1 17.9 9.4 50 5.7 WSW 11 17 6 9 1011.1 1011.1 0.0
 
Date/Time
WST
Temp
°C
App
Temp
°C
Dew
Point
Rel
Hum
%
Delta-T
°C
Wind Press
QNH
hPa
Press
MSL
hPa
Rain
since 9 am
mm
Dir
 
Spd
km/h
Gust
km/h
Spd
kts
Gust
kts
15/11:30pm 20.0 18.3 7.7 45 6.3 E 6 7 3 4 1011.1 1011.1 0.0
15/11:00pm 21.3 19.3 11.6 54 5.4 E 13 15 7 8 1011.4 1011.4 0.0
15/10:30pm 20.6 17.1 8.9 47 6.2 ESE 17 17 9 9 1011.5 1011.5 0.0
15/10:00pm 21.6 20.5 5.1 34 8.2 CALM 0 0 0 0 1011.5 1011.5 0.0
15/09:30pm 23.1 21.8 6.0 33 8.7 NNW 2 6 1 3 1011.4 1011.4 0.0
15/09:00pm 23.7 21.4 4.6 29 9.5 E 6 9 3 5 1011.4 1011.4 0.0
15/08:30pm 24.1 22.7 5.5 30 9.4 SSW 2 6 1 3 1011.4 1011.4 0.0
15/08:00pm 25.5 23.0 4.6 26 10.5 SW 7 7 4 4 1011.3 1011.3 0.0
15/07:30pm 27.6 24.6 4.0 22 11.9 SSE 9 11 5 6 1011.0 1011.0 0.0
15/07:00pm 28.8 26.6 3.6 20 12.7 S 4 7 2 4 1010.6 1010.6 0.0
15/06:30pm 30.1 25.6 4.0 19 13.4 N 17 24 9 13 1010.2 1010.2 0.0
15/06:00pm 30.4 25.9 6.3 22 12.9 N 19 24 10 13 1009.9 1009.9 0.0
15/05:30pm 31.0 26.5 6.8 22 13.0 N 20 28 11 15 1009.6 1009.6 0.0
15/05:00pm 32.2 27.3 7.1 21 13.7 N 22 30 12 16 1009.2 1009.2 0.0
15/04:30pm 33.6 28.5 6.0 18 14.9 N 22 32 12 17 1009.0 1009.0 0.0
15/04:00pm 34.7 29.1 3.3 14 16.3 NNW 22 30 12 16 1008.8 1008.8 0.0
15/03:30pm 36.6 31.7 -6.8 6 19.4 SE 11 20 6 11 1008.9 1008.9 0.0
15/03:00pm 36.7 32.2 -6.7 6 19.5 E 9 20 5 11 1008.9 1008.9 0.0
15/02:30pm 36.8 31.9 -6.6 6 19.5 ESE 11 22 6 12 1009.1 1009.1 0.0
15/02:00pm 36.6 31.7 -6.8 6 19.5 ENE 11 19 6 10 1009.3 1009.3 0.0
15/01:30pm 36.5 32.0 -6.8 6 19.4 E 9 19 5 10 1009.8 1009.8 0.0
15/01:00pm 36.7 31.5 -6.7 6 19.5 E 13 28 7 15 1010.3 1010.3 0.0
15/12:30pm 36.2 30.9 -7.0 6 19.2 E 13 26 7 14 1010.8 1010.8 0.0
15/12:00pm 35.6 30.9 -5.5 7 18.7 E 11 19 6 10 1011.2 1011.2 0.0
15/11:30am 36.2 29.8 -5.0 7 18.9 E 20 28 11 15 1011.9 1011.9 0.0
15/11:00am 35.7 28.5 -5.4 7 18.7 ESE 24 26 13 14 1012.5 1012.5 0.0
15/10:30am 34.5 29.1 -1.5 10 17.3 ENE 17 20 9 11 1013.0 1013.0 0.0
15/10:00am 34.3 29.2 -1.7 10 17.2 NE 15 26 8 14 1013.5 1013.5 0.0
15/09:30am 34.0 30.2 -0.6 11 16.8 ENE 9 17 5 9 1013.8 1013.8 0.0
15/09:00am 31.3 29.3 6.4 21 13.3 NNW 6 9 3 5 1014.2 1014.2 0.0
15/08:30am 28.8 27.3 9.0 29 10.9 SW 7 11 4 6 1014.2 1014.2 0.0
15/08:00am 27.6 26.2 10.8 35 9.5 SW 9 11 5 6 1014.3 1014.3 0.0
15/07:30am 26.4 25.5 9.3 34 9.4 W 4 7 2 4 1014.0 1014.0 0.0
15/07:00am 25.4 23.8 8.8 35 9.0 NW 7 9 4 5 1013.7 1013.7 0.0
15/06:30am 22.7 21.7 10.2 45 6.8 N 6 9 3 5 1013.4 1013.4 0.0
15/06:29am 22.6 21.5 10.1 45 6.8 N 6 9 3 5 1013.4 1013.4 0.0
15/06:00am 17.6 15.4 7.9 53 4.9 WSW 9 11 5 6 1013.1 1013.1 0.0
15/05:30am 16.8 14.7 5.7 48 5.4 WSW 6 7 3 4 1012.7 1012.7 0.0
15/05:00am 17.6 16.8 8.2 54 4.8 N 2 6 1 3 1012.5 1012.5 0.0
15/04:30am 17.1 14.9 6.3 49 5.3 WSW 7 9 4 5 1012.4 1012.4 0.0
15/04:00am 18.1 17.5 7.5 50 5.4 CALM 0 0 0 0 1011.8 1011.8 0.0
15/03:30am 19.4 17.8 8.1 48 5.8 SSW 6 7 3 4 1011.7 1011.7 0.0
15/03:00am 19.9 19.6 8.6 48 5.9 CALM 0 0 0 0 1011.5 1011.5 0.0
15/02:30am 17.8 15.7 9.9 60 4.2 NW 11 13 6 7 1011.2 1011.2 0.0
15/02:00am 19.1 17.6 9.3 53 5.2 SW 7 11 4 6 1010.7 1010.7 0.0
15/01:30am 18.6 18.1 9.4 55 4.8 S 2 7 1 4 1011.0 1011.0 0.0
15/01:00am 20.7 21.1 11.1 54 5.3 CALM 0 0 0 0 1011.1 1011.1 0.0
15/12:30am 20.9 18.8 11.0 53 5.4 ESE 13 15 7 8 1011.2 1011.2 0.0
15/12:00am 21.7 18.8 11.1 51 5.9 E 17 17 9 9 1011.2 1011.2 0.0
 
Date/Time
WST
Temp
°C
App
Temp
°C
Dew
Point
Rel
Hum
%
Delta-T
°C
Wind Press
QNH
hPa
Press
MSL
hPa
Rain
since 9 am
mm
Dir
 
Spd
km/h
Gust
km/h
Spd
kts
Gust
kts
14/11:30pm 20.6 17.4 9.8 50 5.8 ESE 17 20 9 11 1011.6 1011.6 0.0
14/11:00pm 21.2 19.8 9.4 47 6.3 E 7 11 4 6 1011.8 1011.8 0.0
14/10:30pm 21.9 19.6 9.1 44 6.8 E 11 13 6 7 1012.0 1012.0 0.0
14/10:00pm 22.4 19.7 8.9 42 7.2 E 13 13 7 7 1012.0 1012.0 0.0
14/09:30pm 22.4 19.6 8.5 41 7.4 ESE 13 15 7 8 1012.0 1012.0 0.0
14/09:00pm 23.3 20.9 8.6 39 7.8 E 11 15 6 8 1012.1 1012.1 0.0
14/08:30pm 23.0 21.9 8.3 39 7.8 ENE 4 9 2 5 1012.1 1012.1 0.0
14/08:00pm 25.8 23.5 11.6 41 8.1 SSW 15 17 8 9 1011.9 1011.9 0.0
14/07:30pm 26.0 23.0 6.1 28 10.3 SW 11 17 6 9 1011.6 1011.6 0.0
14/07:00pm 30.3 27.0 6.2 22 12.8 N 13 19 7 10 1011.2 1011.2 0.0
14/06:30pm 30.1 26.6 5.4 21 12.9 N 13 17 7 9 1011.0 1011.0 0.0
14/06:00pm 31.3 27.2 6.4 21 13.4 N 17 22 9 12 1010.5 1010.5 0.0
14/05:30pm 31.6 27.5 7.9 23 13.0 N 19 24 10 13 1010.0 1010.0 0.0
14/05:00pm 32.7 28.7 8.2 22 13.6 N 19 26 10 14 1009.7 1009.7 0.0
14/04:30pm 33.6 28.5 7.5 20 14.4 N 24 30 13 16 1009.3 1009.3 0.0
14/04:00pm 34.6 29.3 6.8 18 15.3 N 24 30 13 16 1009.1 1009.1 0.0
14/03:30pm 35.1 30.8 8.0 19 15.2 NNW 20 28 11 15 1009.0 1009.0 0.0
14/03:00pm 35.5 31.9 8.3 19 15.4 N 17 24 9 13 1008.9 1008.9 0.0
14/02:30pm 37.3 33.1 -4.2 7 19.5 SE 9 13 5 7 1008.9 1008.9 0.0
14/02:00pm 37.9 30.5 -3.8 7 19.8 ESE 26 35 14 19 1009.1 1009.1 0.0
14/01:30pm 38.0 31.0 -3.7 7 19.8 E 24 37 13 20 1009.4 1009.4 0.0
14/01:00pm 37.6 31.5 -2.2 8 19.3 ESE 20 35 11 19 1009.8 1009.8 0.0
14/12:30pm 38.1 32.6 -1.9 8 19.5 E 17 32 9 17 1010.4 1010.4 0.0
14/12:00pm 37.5 31.0 -2.3 8 19.3 SE 22 35 12 19 1011.0 1011.0 0.0
14/11:30am 37.0 31.1 -1.1 9 18.7 E 20 35 11 19 1011.6 1011.6 0.0
14/11:00am 36.9 30.2 -1.1 9 18.7 E 24 33 13 18 1012.2 1012.2 0.0
14/10:30am 35.5 28.5 -0.8 10 17.7 ENE 26 35 14 19 1012.8 1012.8 0.0
14/10:00am 35.7 27.9 -0.6 10 17.8 ENE 30 41 16 22 1013.2 1013.2 0.0
14/09:30am 34.7 26.4 2.3 13 16.6 E 35 46 19 25 1013.7 1013.7 0.0
14/09:00am 34.4 28.0 0.9 12 16.7 E 24 35 13 19 1013.9 1013.9 0.0
14/08:30am 32.8 27.0 -0.3 12 16.0 E 20 28 11 15 1014.4 1014.4 0.0
14/08:00am 31.1 27.3 4.0 18 13.9 ESE 13 17 7 9 1014.5 1014.5 0.0
14/07:30am 28.3 26.2 9.6 31 10.4 E 11 13 6 7 1014.4 1014.4 0.0

Other Formats:

Comma delimited format used in spreadsheet applications
http://www.bom.gov.au/fwo/IDW60801/IDW60801.95214.axf

JavaScript Object Notation format (JSON) in row-major order
http://www.bom.gov.au/fwo/IDW60801/IDW60801.95214.json